Time;durP1;ratioP1;P1;durP2;ratioP2;P2;SDS_P1;SDS_P2;PMS_P1;PMS_P2;Temp;Humidity;BMP_temperature;BMP_pressure;BME280_temperature;BME280_humidity;BME280_pressure;Samples;Min_cycle;Max_cycle;Signal;HPM_P1;HPM_P2
2021/12/30 00:01:16;;;;;;;1.20;0.90;;;11.90;99.90;;;;;;5050439;28;20552;-76
2021/12/30 00:03:43;;;;;;;1.90;0.85;;;11.90;99.90;;;;;;5050663;28;20248;-76
2021/12/30 00:06:11;;;;;;;1.20;0.90;;;11.90;99.90;;;;;;5050374;28;20224;-76
2021/12/30 00:08:38;;;;;;;1.95;1.00;;;11.90;99.90;;;;;;5050650;28;20205;-76
2021/12/30 00:11:07;;;;;;;2.00;0.90;;;11.90;99.90;;;;;;5049836;28;20229;-76
2021/12/30 00:13:35;;;;;;;1.00;0.80;;;11.80;99.90;;;;;;5050740;28;20228;-76
2021/12/30 00:16:03;;;;;;;0.82;0.77;;;11.80;99.90;;;;;;5050602;28;20208;-76
2021/12/30 00:18:29;;;;;;;1.00;0.80;;;11.80;99.90;;;;;;5050320;28;20216;-76
2021/12/30 00:20:56;;;;;;;3.80;1.08;;;11.80;99.90;;;;;;5050098;28;20204;-76
2021/12/30 00:23:23;;;;;;;1.10;0.90;;;11.80;99.90;;;;;;5050969;28;20217;-75
2021/12/30 00:25:50;;;;;;;1.27;0.90;;;11.80;99.90;;;;;;5050493;28;20205;-76
2021/12/30 00:28:18;;;;;;;1.52;0.90;;;11.80;99.90;;;;;;5050300;28;20208;-75
2021/12/30 00:30:47;;;;;;;3.45;1.10;;;11.80;99.90;;;;;;5050239;28;20224;-76
2021/12/30 00:33:15;;;;;;;1.90;1.00;;;11.80;99.90;;;;;;5050226;28;20224;-76
2021/12/30 00:35:42;;;;;;;1.30;1.10;;;11.70;99.90;;;;;;5050257;28;20200;-76
2021/12/30 00:38:09;;;;;;;1.63;1.00;;;11.70;99.90;;;;;;5054203;28;20205;-76
2021/12/30 00:40:37;;;;;;;1.95;1.00;;;11.80;99.90;;;;;;5054441;28;20208;-76
2021/12/30 00:43:04;;;;;;;3.05;1.50;;;11.70;99.90;;;;;;5053767;28;20233;-76
2021/12/30 00:45:32;;;;;;;1.55;1.02;;;11.70;99.90;;;;;;5054193;28;20209;-77
2021/12/30 00:48:00;;;;;;;7.53;1.30;;;11.70;99.90;;;;;;5054126;28;20271;-77
2021/12/30 00:50:30;;;;;;;1.35;1.00;;;11.80;99.90;;;;;;5054129;28;20232;-77
2021/12/30 00:52:58;;;;;;;2.63;0.95;;;11.80;99.90;;;;;;5053304;28;20269;-76
2021/12/30 00:55:25;;;;;;;2.80;0.98;;;11.80;99.90;;;;;;5054510;28;20197;-76
2021/12/30 00:57:51;;;;;;;1.10;1.00;;;11.70;99.90;;;;;;5057455;28;20220;-78
2021/12/30 01:00:20;;;;;;;2.53;1.38;;;11.70;99.90;;;;;;5063830;28;20618;-76
2021/12/30 01:02:47;;;;;;;1.77;1.10;;;11.70;99.90;;;;;;5054347;28;20212;-77
2021/12/30 01:05:16;;;;;;;1.60;1.00;;;11.60;99.90;;;;;;5053792;28;20209;-76
2021/12/30 01:07:44;;;;;;;1.35;0.90;;;11.60;99.90;;;;;;5053833;28;20684;-76
2021/12/30 01:10:13;;;;;;;1.58;1.10;;;11.60;99.90;;;;;;5053465;28;20290;-77
2021/12/30 01:12:40;;;;;;;3.95;1.35;;;11.60;99.90;;;;;;5053382;28;20201;-77
2021/12/30 01:15:10;;;;;;;4.22;1.30;;;11.50;99.90;;;;;;5053943;28;20220;-77
2021/12/30 01:17:48;;;;;;;1.77;1.10;;;11.50;99.90;;;;;;5053757;28;20193;-77
2021/12/30 01:20:19;;;;;;;1.00;0.90;;;11.40;99.90;;;;;;5053771;28;20208;-77
2021/12/30 01:22:48;;;;;;;1.95;1.10;;;11.40;99.90;;;;;;5052602;28;20294;-77
2021/12/30 01:25:16;;;;;;;1.42;1.00;;;11.40;99.90;;;;;;5053809;28;20624;-77
2021/12/30 01:27:43;;;;;;;2.50;1.23;;;11.40;99.90;;;;;;5053312;28;20197;-77
2021/12/30 01:30:13;;;;;;;1.38;0.90;;;11.40;99.90;;;;;;5053400;28;20617;-77
2021/12/30 01:32:39;;;;;;;2.45;1.85;;;11.30;99.90;;;;;;5052942;28;20855;-77
2021/12/30 01:35:08;;;;;;;2.47;1.20;;;11.30;99.90;;;;;;5053225;28;20201;-76
2021/12/30 01:37:37;;;;;;;1.50;1.00;;;11.30;99.90;;;;;;5053320;28;20623;-77
2021/12/30 01:40:05;;;;;;;4.95;1.40;;;11.40;99.90;;;;;;5053031;28;20207;-77
2021/12/30 01:42:33;;;;;;;3.03;1.20;;;11.40;99.90;;;;;;5052918;28;20247;-77
2021/12/30 01:45:00;;;;;;;2.22;1.17;;;11.40;99.90;;;;;;5053108;28;20704;-77
2021/12/30 01:47:26;;;;;;;1.20;1.10;;;11.40;99.90;;;;;;5052913;28;20201;-76
2021/12/30 01:49:53;;;;;;;2.00;0.90;;;11.40;99.90;;;;;;5052927;28;20224;-77
2021/12/30 01:52:20;;;;;;;3.72;1.30;;;11.30;99.90;;;;;;5052435;28;20208;-77
2021/12/30 01:54:48;;;;;;;3.55;1.05;;;11.30;99.90;;;;;;5053070;28;20221;-77
2021/12/30 01:57:15;;;;;;;1.10;0.95;;;11.30;99.90;;;;;;5052984;28;20205;-77
2021/12/30 01:59:42;;;;;;;3.25;1.10;;;11.20;99.90;;;;;;5052869;28;20209;-77
2021/12/30 02:02:09;;;;;;;1.15;0.93;;;11.20;99.90;;;;;;5052408;28;20622;-77
2021/12/30 02:04:36;;;;;;;2.08;1.20;;;11.20;99.90;;;;;;5052525;28;20708;-76
2021/12/30 02:07:03;;;;;;;2.25;1.15;;;11.10;99.90;;;;;;5052459;28;20673;-76
2021/12/30 02:09:31;;;;;;;4.10;1.75;;;11.10;99.90;;;;;;5052741;28;20300;-76
2021/12/30 02:12:01;;;;;;;2.50;1.42;;;11.00;99.90;;;;;;5051916;28;20205;-76
2021/12/30 02:14:33;;;;;;;1.67;1.10;;;11.00;99.90;;;;;;5052780;28;20228;-76
2021/12/30 02:16:59;;;;;;;2.20;1.30;;;11.00;99.90;;;;;;5052286;28;20232;-76
2021/12/30 02:19:26;;;;;;;1.25;0.93;;;10.90;99.90;;;;;;5052686;28;20208;-76
2021/12/30 02:21:54;;;;;;;1.55;1.30;;;10.90;99.90;;;;;;5051869;28;20201;-76
2021/12/30 02:24:21;;;;;;;1.90;1.10;;;10.90;99.90;;;;;;5052380;28;20233;-76
2021/12/30 02:26:48;;;;;;;1.25;1.10;;;10.90;99.90;;;;;;5052888;28;20205;-75
2021/12/30 02:29:15;;;;;;;2.65;1.20;;;10.90;99.90;;;;;;5052156;28;20204;-75
2021/12/30 02:31:41;;;;;;;1.55;1.00;;;10.90;99.90;;;;;;5051701;28;20232;-75
2021/12/30 02:34:08;;;;;;;2.80;1.20;;;10.90;99.90;;;;;;5052040;28;20225;-76
2021/12/30 02:36:37;;;;;;;1.60;1.20;;;10.80;99.90;;;;;;5052062;28;20205;-75
2021/12/30 02:39:08;;;;;;;2.05;1.52;;;10.80;99.90;;;;;;5052067;28;20216;-76
2021/12/30 02:41:38;;;;;;;2.08;1.40;;;10.80;99.90;;;;;;5051494;28;20197;-76
2021/12/30 02:44:06;;;;;;;1.90;1.60;;;10.80;99.90;;;;;;5051889;28;20391;-76
2021/12/30 02:46:35;;;;;;;1.30;1.20;;;10.80;99.90;;;;;;5052010;28;20216;-77
2021/12/30 02:49:02;;;;;;;2.08;1.48;;;10.80;99.90;;;;;;5051544;28;20251;-76
2021/12/30 02:51:29;;;;;;;2.45;1.10;;;10.90;99.90;;;;;;5051429;28;20227;-76
2021/12/30 02:53:56;;;;;;;2.40;1.17;;;10.90;99.90;;;;;;5051518;28;20224;-76
2021/12/30 02:56:25;;;;;;;2.28;1.10;;;10.90;99.90;;;;;;5051970;28;20213;-76
2021/12/30 02:58:52;;;;;;;1.25;0.95;;;10.90;99.90;;;;;;5051120;28;20201;-78
2021/12/30 03:01:22;;;;;;;1.20;0.93;;;10.90;99.90;;;;;;5051174;28;20568;-76
2021/12/30 03:03:49;;;;;;;1.10;1.00;;;10.90;99.90;;;;;;5051599;28;20221;-76
2021/12/30 03:06:17;;;;;;;2.25;1.10;;;10.90;99.90;;;;;;5051422;28;20695;-76
2021/12/30 03:08:46;;;;;;;1.10;1.00;;;10.90;99.90;;;;;;5051801;28;20602;-78
2021/12/30 03:11:13;;;;;;;3.53;0.80;;;10.90;99.90;;;;;;5051012;28;20229;-77
2021/12/30 03:13:43;;;;;;;1.20;1.10;;;10.90;99.90;;;;;;5051431;28;20592;-76
2021/12/30 03:16:13;;;;;;;1.80;0.90;;;11.00;99.90;;;;;;5051564;28;20202;-76
2021/12/30 03:18:41;;;;;;;1.63;1.10;;;11.00;99.90;;;;;;5051160;28;20213;-77
2021/12/30 03:21:10;;;;;;;3.08;1.20;;;11.00;99.90;;;;;;5050855;28;20204;-76
2021/12/30 03:23:37;;;;;;;1.10;1.00;;;11.10;99.90;;;;;;5051630;28;20217;-76
2021/12/30 03:26:07;;;;;;;1.35;0.90;;;11.10;99.90;;;;;;5051019;28;20204;-76
2021/12/30 03:28:34;;;;;;;1.23;0.98;;;11.10;99.90;;;;;;5052400;28;20215;-77
2021/12/30 03:31:03;;;;;;;1.55;1.23;;;11.20;99.90;;;;;;5050863;28;20228;-76
2021/12/30 03:33:31;;;;;;;1.17;0.90;;;11.30;99.90;;;;;;5051303;28;20217;-76
2021/12/30 03:36:00;;;;;;;2.15;1.40;;;11.30;99.90;;;;;;5051213;28;20208;-77
2021/12/30 03:38:27;;;;;;;2.83;1.20;;;11.30;99.90;;;;;;5050919;28;20205;-76
2021/12/30 03:40:54;;;;;;;1.35;0.95;;;11.30;99.90;;;;;;5050504;28;20205;-76
2021/12/30 03:43:21;;;;;;;3.53;1.15;;;11.30;99.90;;;;;;5050839;28;20244;-76
2021/12/30 03:45:47;;;;;;;1.45;0.95;;;11.30;99.90;;;;;;5051141;28;20205;-77
2021/12/30 03:48:16;;;;;;;2.25;1.10;;;11.30;99.90;;;;;;5051107;28;20197;-77
2021/12/30 03:50:44;;;;;;;1.33;1.10;;;11.30;99.90;;;;;;5050555;28;20221;-77
2021/12/30 03:53:14;;;;;;;1.38;0.90;;;11.30;99.90;;;;;;5050584;28;20221;-76
2021/12/30 03:55:42;;;;;;;2.03;1.10;;;11.30;99.90;;;;;;5050797;28;20201;-77
2021/12/30 03:58:09;;;;;;;1.40;1.05;;;11.30;99.90;;;;;;5050713;28;20210;-77
2021/12/30 04:00:38;;;;;;;1.70;1.02;;;11.30;99.90;;;;;;5050878;28;20197;-77
2021/12/30 04:03:06;;;;;;;2.83;1.27;;;11.20;99.90;;;;;;5049844;28;20245;-77
2021/12/30 04:05:34;;;;;;;1.67;1.10;;;11.30;99.90;;;;;;5050935;28;20575;-76
2021/12/30 04:08:00;;;;;;;3.08;1.10;;;11.30;99.90;;;;;;5050266;28;20205;-77
2021/12/30 04:10:27;;;;;;;1.00;0.90;;;11.30;99.90;;;;;;5049971;28;20217;-76
2021/12/30 04:13:00;;;;;;;1.33;1.10;;;11.30;99.90;;;;;;5049786;28;20232;-75
2021/12/30 04:15:26;;;;;;;1.38;1.20;;;11.40;99.90;;;;;;5050874;28;20208;-77
2021/12/30 04:17:53;;;;;;;1.30;1.10;;;11.40;99.90;;;;;;5050524;28;20560;-77
2021/12/30 04:20:20;;;;;;;1.17;1.00;;;11.40;99.90;;;;;;5050903;28;20212;-77
2021/12/30 04:22:48;;;;;;;1.65;1.10;;;11.40;99.90;;;;;;5049926;28;20216;-77
2021/12/30 04:25:17;;;;;;;1.45;1.00;;;11.40;99.90;;;;;;5050631;28;20864;-77
2021/12/30 04:27:44;;;;;;;1.10;1.00;;;11.50;99.90;;;;;;5050338;28;20197;-77
2021/12/30 04:30:13;;;;;;;1.10;0.82;;;11.50;99.90;;;;;;5051219;28;20301;-75
2021/12/30 04:32:40;;;;;;;2.95;1.35;;;11.50;99.90;;;;;;5049663;28;20683;-76
2021/12/30 04:35:08;;;;;;;1.10;0.90;;;11.50;99.90;;;;;;5050430;28;20803;-77
2021/12/30 04:37:35;;;;;;;1.80;0.90;;;11.40;99.90;;;;;;5050295;28;20205;-76
2021/12/30 04:40:05;;;;;;;2.00;1.05;;;11.40;99.90;;;;;;5050145;28;20201;-75
2021/12/30 04:42:32;;;;;;;1.60;0.90;;;11.40;99.90;;;;;;5049867;28;20197;-76
2021/12/30 04:44:59;;;;;;;1.05;0.95;;;11.40;99.90;;;;;;5049813;28;20216;-76
2021/12/30 04:47:25;;;;;;;3.60;1.02;;;11.40;99.90;;;;;;5050298;28;20208;-76
2021/12/30 04:49:55;;;;;;;1.27;0.90;;;11.40;99.90;;;;;;5050230;28;20215;-76
2021/12/30 04:52:22;;;;;;;1.00;0.90;;;11.40;99.90;;;;;;5049769;28;20224;-76
2021/12/30 04:54:49;;;;;;;1.00;0.90;;;11.40;99.90;;;;;;5050241;28;20221;-76
2021/12/30 04:57:18;;;;;;;2.90;1.60;;;11.40;99.90;;;;;;5050008;28;20208;-76
2021/12/30 04:59:45;;;;;;;1.40;1.02;;;11.40;99.90;;;;;;5050352;28;20205;-77
2021/12/30 05:02:12;;;;;;;1.25;0.90;;;11.30;99.90;;;;;;5049463;28;20204;-76
2021/12/30 05:04:39;;;;;;;1.45;0.88;;;11.40;99.90;;;;;;5050111;28;20232;-76
2021/12/30 05:07:05;;;;;;;1.50;0.90;;;11.40;99.90;;;;;;5049964;28;20204;-78
2021/12/30 05:09:32;;;;;;;1.25;1.15;;;11.40;99.90;;;;;;5050126;28;20212;-78
2021/12/30 05:11:59;;;;;;;1.77;1.33;;;11.40;99.90;;;;;;5049464;28;20221;-77
2021/12/30 05:14:27;;;;;;;1.00;0.90;;;11.40;99.90;;;;;;5050075;28;20727;-77
2021/12/30 05:16:55;;;;;;;1.40;1.00;;;11.40;99.90;;;;;;5049670;28;20197;-77
2021/12/30 05:19:22;;;;;;;1.23;0.82;;;11.40;99.90;;;;;;5050300;28;20255;-77
2021/12/30 05:21:49;;;;;;;1.50;0.90;;;11.40;99.90;;;;;;5049449;28;20201;-77
2021/12/30 05:24:16;;;;;;;4.05;1.58;;;11.40;99.90;;;;;;5053607;28;20712;-77
2021/12/30 05:26:43;;;;;;;1.58;0.95;;;11.40;99.90;;;;;;5053701;28;20653;-77
2021/12/30 05:29:10;;;;;;;1.83;1.00;;;11.40;99.90;;;;;;5053270;28;20208;-77
2021/12/30 05:31:38;;;;;;;0.80;0.70;;;11.40;99.90;;;;;;5053087;28;20658;-78
2021/12/30 05:34:05;;;;;;;1.42;0.90;;;11.40;99.90;;;;;;5053198;28;20608;-78
2021/12/30 05:36:32;;;;;;;1.98;1.20;;;11.40;99.90;;;;;;5053492;28;20602;-77
2021/12/30 05:38:59;;;;;;;1.10;0.80;;;11.40;99.90;;;;;;5053252;28;20209;-77
2021/12/30 05:41:27;;;;;;;0.90;0.80;;;11.40;99.90;;;;;;5053060;28;20556;-78
2021/12/30 05:43:54;;;;;;;1.13;0.85;;;11.40;99.90;;;;;;5053430;28;20229;-78
2021/12/30 05:46:21;;;;;;;0.70;0.60;;;11.40;99.90;;;;;;5053433;28;20248;-78
2021/12/30 05:48:49;;;;;;;1.63;0.90;;;11.40;99.90;;;;;;5053256;28;20710;-78
2021/12/30 05:51:16;;;;;;;0.85;0.77;;;11.50;99.90;;;;;;5080601;22;20233;-95
2021/12/30 05:53:43;;;;;;;0.90;0.80;;;11.60;99.90;;;;;;5069600;22;20382;-73
2021/12/30 05:56:09;;;;;;;1.70;0.80;;;11.60;99.90;;;;;;5033313;28;20198;-73
2021/12/30 05:58:36;;;;;;;1.63;0.70;;;11.70;99.90;;;;;;5051658;28;20212;-73
2021/12/30 06:01:03;;;;;;;0.80;0.70;;;11.70;99.90;;;;;;5052561;28;20201;-73
2021/12/30 06:03:30;;;;;;;0.82;0.77;;;11.70;99.90;;;;;;5052529;28;20758;-73
2021/12/30 06:05:58;;;;;;;1.00;0.90;;;11.80;99.90;;;;;;5053327;28;20205;-73
2021/12/30 06:08:25;;;;;;;1.13;0.68;;;11.80;99.90;;;;;;5052784;28;20671;-73
2021/12/30 06:10:51;;;;;;;3.20;0.80;;;11.70;99.90;;;;;;5051335;28;20211;-73
2021/12/30 06:13:19;;;;;;;0.90;0.77;;;11.70;99.90;;;;;;5053285;28;20225;-74
2021/12/30 06:15:45;;;;;;;1.55;0.70;;;11.70;99.90;;;;;;5053098;28;20200;-74
2021/12/30 06:18:13;;;;;;;0.80;0.70;;;11.70;99.90;;;;;;5053134;28;20212;-74
2021/12/30 06:20:40;;;;;;;0.70;0.60;;;11.70;99.90;;;;;;5052344;28;20197;-74
2021/12/30 06:23:08;;;;;;;1.77;0.70;;;11.70;99.90;;;;;;5052358;28;20221;-74
2021/12/30 06:25:34;;;;;;;0.90;0.70;;;11.70;99.90;;;;;;5052625;28;20209;-73
2021/12/30 06:28:01;;;;;;;1.83;1.00;;;11.70;99.90;;;;;;5052482;28;20201;-74
2021/12/30 06:30:28;;;;;;;0.82;0.73;;;11.70;99.90;;;;;;5052649;28;20227;-73
2021/12/30 06:32:55;;;;;;;1.20;0.90;;;11.60;99.90;;;;;;5051830;28;20688;-74
2021/12/30 06:35:22;;;;;;;0.70;0.70;;;11.60;99.90;;;;;;5051485;28;20208;-74
2021/12/30 06:37:49;;;;;;;0.88;0.80;;;11.60;99.90;;;;;;5052421;28;20197;-74
2021/12/30 06:40:17;;;;;;;1.08;0.70;;;11.60;99.90;;;;;;5052453;28;20201;-74
2021/12/30 06:42:44;;;;;;;0.80;0.80;;;11.60;99.90;;;;;;5051759;28;20213;-74
2021/12/30 06:45:12;;;;;;;0.90;0.80;;;11.60;99.90;;;;;;5052156;28;20205;-74
2021/12/30 06:47:39;;;;;;;1.33;0.90;;;11.60;99.90;;;;;;5052255;28;20208;-74
2021/12/30 06:50:07;;;;;;;1.58;0.80;;;11.60;99.90;;;;;;5052341;28;20209;-74
2021/12/30 06:52:34;;;;;;;0.80;0.70;;;11.50;99.90;;;;;;5051359;28;20220;-74
2021/12/30 06:55:01;;;;;;;1.65;1.05;;;11.50;99.90;;;;;;5051922;28;20225;-74
2021/12/30 06:57:29;;;;;;;0.80;0.70;;;11.40;99.90;;;;;;5042081;28;20210;-74
2021/12/30 06:59:56;;;;;;;1.10;0.80;;;11.40;99.90;;;;;;5012034;28;20199;-74
2021/12/30 07:02:23;;;;;;;1.25;0.80;;;11.40;99.90;;;;;;5011692;28;20656;-74
2021/12/30 07:04:50;;;;;;;1.02;0.80;;;11.40;99.90;;;;;;5011954;28;20254;-74
2021/12/30 07:07:16;;;;;;;0.90;0.80;;;11.40;99.90;;;;;;5012116;28;20598;-74
2021/12/30 07:09:43;;;;;;;1.20;1.10;;;11.40;99.90;;;;;;5012116;28;20574;-74
2021/12/30 07:12:10;;;;;;;0.90;0.80;;;11.40;99.90;;;;;;5011499;28;20222;-74
2021/12/30 07:14:38;;;;;;;1.63;1.00;;;11.40;99.90;;;;;;5011448;28;20261;-74
2021/12/30 07:17:05;;;;;;;1.00;0.90;;;11.50;99.90;;;;;;5012008;28;20206;-74
2021/12/30 07:19:32;;;;;;;1.00;0.90;;;11.50;99.90;;;;;;5011802;28;20206;-74
2021/12/30 07:21:58;;;;;;;1.58;1.00;;;11.50;99.90;;;;;;5011200;28;20198;-74
2021/12/30 07:24:25;;;;;;;1.27;0.80;;;11.50;99.90;;;;;;5011952;28;20241;-74
2021/12/30 07:26:53;;;;;;;1.20;1.00;;;11.40;99.90;;;;;;5011563;28;20206;-74
2021/12/30 07:29:20;;;;;;;1.00;0.90;;;11.50;99.90;;;;;;5011588;28;20198;-74
2021/12/30 07:31:48;;;;;;;1.80;0.80;;;11.40;99.90;;;;;;5011024;28;20245;-74
2021/12/30 07:34:15;;;;;;;1.17;1.00;;;11.50;99.90;;;;;;5011419;28;20223;-74
2021/12/30 07:36:42;;;;;;;1.38;0.85;;;11.50;99.90;;;;;;5011564;28;20222;-74
2021/12/30 07:39:09;;;;;;;0.90;0.80;;;11.50;99.90;;;;;;5011354;28;20202;-74
2021/12/30 07:41:36;;;;;;;0.80;0.70;;;11.50;99.90;;;;;;5011230;28;20203;-74
2021/12/30 07:44:02;;;;;;;0.80;0.80;;;11.50;99.90;;;;;;5011361;28;20226;-74
2021/12/30 07:46:29;;;;;;;1.10;0.80;;;11.60;99.90;;;;;;5011100;28;20223;-74
2021/12/30 07:48:57;;;;;;;0.80;0.70;;;11.60;99.90;;;;;;5011379;28;20660;-74
2021/12/30 07:51:24;;;;;;;1.10;0.90;;;11.60;99.90;;;;;;5010403;28;20202;-74
2021/12/30 07:53:51;;;;;;;1.23;0.80;;;11.60;99.90;;;;;;5011396;28;20601;-74
2021/12/30 07:56:17;;;;;;;0.85;0.82;;;11.60;99.90;;;;;;5011270;28;20206;-74
2021/12/30 07:58:44;;;;;;;1.10;0.70;;;11.60;99.90;;;;;;5010892;28;20650;-74
2021/12/30 08:01:11;;;;;;;0.85;0.73;;;11.60;99.90;;;;;;5010746;28;20202;-74
2021/12/30 08:03:37;;;;;;;7.22;1.60;;;11.60;99.90;;;;;;5010845;28;20222;-74
2021/12/30 08:06:06;;;;;;;0.90;0.70;;;11.70;99.90;;;;;;5011414;28;20225;-75
2021/12/30 08:08:32;;;;;;;2.15;1.20;;;11.70;99.90;;;;;;5010929;28;20599;-74
2021/12/30 08:10:59;;;;;;;1.00;0.90;;;11.70;99.90;;;;;;5010601;28;20584;-74
2021/12/30 08:13:27;;;;;;;1.33;1.02;;;11.70;99.90;;;;;;5010770;28;20694;-74
2021/12/30 08:15:54;;;;;;;1.27;0.90;;;11.80;99.90;;;;;;5011194;28;20209;-74
2021/12/30 08:18:21;;;;;;;1.10;1.00;;;11.80;99.90;;;;;;5011412;28;20225;-74
2021/12/30 08:20:48;;;;;;;1.95;0.80;;;11.80;99.90;;;;;;5010971;28;20597;-74
2021/12/30 08:23:16;;;;;;;1.90;0.80;;;11.90;99.90;;;;;;5010815;28;20228;-74
2021/12/30 08:25:49;;;;;;;1.25;0.90;;;11.90;99.90;;;;;;5011046;28;20689;-74
2021/12/30 08:28:16;;;;;;;3.10;1.00;;;11.90;99.90;;;;;;5010773;28;20252;-74
2021/12/30 08:30:43;;;;;;;1.00;0.80;;;11.90;99.90;;;;;;5010958;28;20202;-74
2021/12/30 08:33:09;;;;;;;1.60;0.90;;;12.00;99.90;;;;;;5010346;28;20697;-74
2021/12/30 08:35:36;;;;;;;1.50;1.20;;;12.10;99.90;;;;;;5010871;28;20202;-74
2021/12/30 08:38:03;;;;;;;0.95;0.85;;;12.10;99.90;;;;;;5010612;28;20202;-74
2021/12/30 08:40:31;;;;;;;1.17;1.08;;;12.20;99.90;;;;;;5010765;28;20190;-74
2021/12/30 08:42:58;;;;;;;1.48;0.85;;;12.20;99.90;;;;;;5010208;28;20211;-74
2021/12/30 08:45:24;;;;;;;1.02;0.88;;;12.20;99.90;;;;;;5010414;28;20207;-74
2021/12/30 08:47:51;;;;;;;2.28;0.95;;;12.20;99.90;;;;;;5010720;28;20694;-76
2021/12/30 08:50:18;;;;;;;0.90;0.80;;;12.30;99.90;;;;;;5010573;28;20247;-76
2021/12/30 08:52:46;;;;;;;1.50;1.05;;;12.30;99.90;;;;;;5009707;28;20222;-76
2021/12/30 08:55:14;;;;;;;1.85;1.10;;;12.50;99.90;;;;;;5009072;28;20219;-76
2021/12/30 08:57:42;;;;;;;1.10;1.00;;;12.50;99.90;;;;;;5011769;28;20684;-76
2021/12/30 09:00:12;;;;;;;1.38;1.23;;;12.70;99.90;;;;;;5014586;28;20234;-76
2021/12/30 09:02:39;;;;;;;1.73;1.45;;;12.70;99.90;;;;;;5013776;28;20202;-77
2021/12/30 09:05:07;;;;;;;4.93;1.00;;;12.90;99.90;;;;;;5016757;28;20221;-78
2021/12/30 09:07:34;;;;;;;1.20;1.00;;;13.00;99.90;;;;;;5023374;28;20190;-77
2021/12/30 09:10:01;;;;;;;0.95;0.82;;;13.10;99.90;;;;;;5028773;28;20205;-78
2021/12/30 09:12:28;;;;;;;2.88;0.80;;;13.20;99.90;;;;;;5031844;28;20229;-77
2021/12/30 09:14:56;;;;;;;1.55;0.80;;;13.20;99.90;;;;;;5034415;28;20222;-77
2021/12/30 09:17:22;;;;;;;1.48;0.90;;;13.30;99.90;;;;;;5033707;28;20197;-77
2021/12/30 09:19:49;;;;;;;1.30;1.20;;;13.40;99.90;;;;;;5034054;28;20197;-78
2021/12/30 09:22:16;;;;;;;1.00;0.80;;;13.60;99.90;;;;;;5033784;28;20202;-76
2021/12/30 09:24:43;;;;;;;1.45;0.90;;;13.60;99.90;;;;;;5031369;28;20567;-75
2021/12/30 09:27:10;;;;;;;2.15;1.40;;;13.90;99.90;;;;;;5033712;28;20206;-76
2021/12/30 09:29:37;;;;;;;0.90;0.80;;;14.20;99.90;;;;;;5031604;28;20322;-75
2021/12/30 09:32:05;;;;;;;2.43;1.10;;;15.00;99.90;;;;;;5032781;28;20460;-74
2021/12/30 09:34:33;;;;;;;1.00;0.90;;;16.10;99.90;;;;;;5033107;28;20475;-74
2021/12/30 09:37:00;;;;;;;1.10;1.00;;;17.00;99.90;;;;;;5033618;28;20475;-74
2021/12/30 09:39:27;;;;;;;1.03;0.80;;;17.90;99.90;;;;;;5033413;28;20464;-74
2021/12/30 09:41:54;;;;;;;1.00;0.80;;;18.60;99.90;;;;;;5032740;28;20472;-74
2021/12/30 09:44:21;;;;;;;1.37;1.10;;;18.70;99.90;;;;;;5033176;28;20483;-75
2021/12/30 09:46:48;;;;;;;2.17;1.00;;;19.00;99.90;;;;;;5035669;28;20466;-77
2021/12/30 09:49:18;;;;;;;0.90;0.73;;;18.80;99.90;;;;;;5053297;28;20546;-77
2021/12/30 09:51:46;;;;;;;1.43;1.03;;;18.50;99.90;;;;;;5052447;28;20467;-77
2021/12/30 09:54:13;;;;;;;1.10;1.00;;;18.90;99.90;;;;;;5052800;28;20491;-77
2021/12/30 09:56:40;;;;;;;1.30;0.93;;;19.30;99.90;;;;;;5053031;28;20558;-77
2021/12/30 09:59:08;;;;;;;1.43;1.00;;;19.40;99.90;;;;;;5052691;28;20459;-76
2021/12/30 10:01:35;;;;;;;1.20;1.10;;;19.40;99.90;;;;;;5052067;28;20483;-75
2021/12/30 10:04:05;;;;;;;1.67;1.20;;;19.10;99.90;;;;;;5052574;28;20475;-75
2021/12/30 10:06:34;;;;;;;1.20;0.90;;;18.60;99.90;;;;;;5052867;28;20463;-75
2021/12/30 10:09:09;;;;;;;0.90;0.70;;;18.20;99.90;;;;;;5052821;28;20486;-76
2021/12/30 10:11:45;;;;;;;0.93;0.83;;;17.90;99.90;;;;;;5051974;28;20459;-76
2021/12/30 10:14:12;;;;;;;1.00;0.80;;;18.00;99.90;;;;;;5052729;28;20491;-76
2021/12/30 10:16:39;;;;;;;1.30;0.90;;;17.80;99.90;;;;;;5052481;28;20491;-76
2021/12/30 10:19:06;;;;;;;1.00;0.90;;;17.40;99.90;;;;;;5053053;28;20466;-76
2021/12/30 10:21:36;;;;;;;1.30;0.90;;;17.60;99.90;;;;;;5051526;28;20463;-76
2021/12/30 10:24:05;;;;;;;1.07;0.80;;;17.80;99.90;;;;;;5052702;28;20879;-76
2021/12/30 10:26:48;;;;;;;1.10;0.90;;;18.00;99.90;;;;;;5051039;28;20470;-75
2021/12/30 10:29:14;;;;;;;1.20;0.93;;;18.10;99.90;;;;;;5053555;28;20466;-75
2021/12/30 10:31:42;;;;;;;1.30;0.97;;;18.10;99.90;;;;;;5051661;28;20467;-75
2021/12/30 10:34:11;;;;;;;1.40;1.13;;;18.40;99.90;;;;;;5051948;28;20566;-76
2021/12/30 10:36:42;;;;;;;1.03;0.87;;;18.60;99.90;;;;;;5052869;28;20554;-76
2021/12/30 10:39:17;;;;;;;1.37;1.17;;;19.00;99.90;;;;;;5052285;28;20464;-76
2021/12/30 10:41:44;;;;;;;1.00;0.90;;;19.70;99.90;;;;;;5051406;28;20474;-76
2021/12/30 10:44:11;;;;;;;1.40;0.90;;;20.30;99.90;;;;;;5051364;28;20488;-76
2021/12/30 10:46:38;;;;;;;1.30;0.97;;;21.00;99.90;;;;;;5049310;28;20478;-76
2021/12/30 10:49:08;;;;;;;1.83;1.50;;;21.00;99.90;;;;;;5049906;28;20502;-76
2021/12/30 10:51:39;;;;;;;1.00;0.90;;;20.80;99.90;;;;;;5048119;28;20538;-76
2021/12/30 10:54:14;;;;;;;1.00;0.83;;;21.00;99.90;;;;;;5049392;28;20968;-75
2021/12/30 10:56:42;;;;;;;2.97;1.30;;;20.60;99.90;;;;;;5049276;28;20463;-76
2021/12/30 10:59:24;;;;;;;1.20;0.90;;;20.40;99.90;;;;;;5049587;28;20833;-76
2021/12/30 11:01:54;;;;;;;2.13;0.97;;;20.80;99.90;;;;;;5051059;28;20466;-75
2021/12/30 11:04:22;;;;;;;1.70;1.20;;;21.30;99.90;;;;;;5051540;28;20476;-76
2021/12/30 11:06:56;;;;;;;1.00;0.87;;;21.70;99.90;;;;;;5052052;28;20471;-76
2021/12/30 11:09:23;;;;;;;1.00;0.80;;;21.80;99.90;;;;;;5051441;28;20881;-76
2021/12/30 11:11:53;;;;;;;1.00;0.80;;;22.00;99.90;;;;;;5051372;28;20463;-76
2021/12/30 11:14:22;;;;;;;0.90;0.77;;;22.40;99.90;;;;;;5051218;28;20479;-76
2021/12/30 11:17:06;;;;;;;1.10;0.80;;;21.90;99.90;;;;;;5051373;28;20456;-77
2021/12/30 11:19:36;;;;;;;0.90;0.80;;;21.30;99.90;;;;;;5050555;28;20509;-75
2021/12/30 11:22:06;;;;;;;1.00;0.80;;;20.90;99.90;;;;;;5050901;28;20466;-75
2021/12/30 11:24:34;;;;;;;0.90;0.70;;;20.50;99.90;;;;;;5052115;28;20483;-74
2021/12/30 11:27:08;;;;;;;1.00;0.90;;;19.90;99.90;;;;;;5051554;28;20841;-76
2021/12/30 11:29:36;;;;;;;0.90;0.70;;;19.30;99.90;;;;;;5051692;28;20467;-76
2021/12/30 11:32:05;;;;;;;0.90;0.80;;;18.80;99.90;;;;;;5050972;28;20467;-75
2021/12/30 11:34:32;;;;;;;1.13;0.80;;;18.40;99.90;;;;;;5051574;28;20491;-75
2021/12/30 11:36:59;;;;;;;0.80;0.70;;;17.90;99.90;;;;;;5051235;28;21147;-75
2021/12/30 11:39:28;;;;;;;1.10;0.70;;;17.40;99.90;;;;;;5051494;28;20490;-76
2021/12/30 11:41:58;;;;;;;1.87;0.80;;;17.20;99.90;;;;;;5052445;28;20825;-76
2021/12/30 11:44:33;;;;;;;1.43;0.90;;;16.90;99.90;;;;;;5053026;28;20471;-76
2021/12/30 11:47:01;;;;;;;0.90;0.70;;;17.00;99.90;;;;;;5051532;28;20469;-75
2021/12/30 11:53:03;;;;;;;0.90;0.70;;;17.00;99.90;;;;;;5057382;22;21217;-93
2021/12/30 11:55:51;;;;;;;0.87;0.70;;;16.80;99.90;;;;;;4967932;28;20541;-92
2021/12/30 11:58:43;;;;;;;0.80;0.70;;;17.10;99.90;;;;;;5015871;28;20640;-93
2021/12/30 12:01:32;;;;;;;0.90;0.70;;;17.50;99.90;;;;;;5001810;28;20478;-94
2021/12/30 12:04:02;;;;;;;1.20;0.70;;;17.60;99.90;;;;;;5069794;22;20497;-75
2021/12/30 12:06:32;;;;;;;2.73;0.90;;;17.40;99.90;;;;;;5069477;28;20459;-76
2021/12/30 12:09:01;;;;;;;1.73;0.90;;;17.20;99.90;;;;;;5070422;28;20459;-75
2021/12/30 12:11:30;;;;;;;0.80;0.70;;;16.80;99.90;;;;;;5069616;28;20961;-75
2021/12/30 12:14:12;;;;;;;1.10;0.80;;;16.50;99.90;;;;;;5070541;28;21009;-75
2021/12/30 12:16:50;;;;;;;4.73;0.90;;;16.30;99.90;;;;;;5069917;28;20457;-75
2021/12/30 12:19:18;;;;;;;1.17;0.93;;;16.30;99.90;;;;;;5056039;28;20966;-76
2021/12/30 12:21:48;;;;;;;0.80;0.70;;;16.40;99.90;;;;;;5048896;28;20456;-75
2021/12/30 12:24:28;;;;;;;1.00;0.80;;;16.40;99.90;;;;;;5048641;28;20490;-76
2021/12/30 12:26:58;;;;;;;0.80;0.70;;;16.40;99.90;;;;;;5050465;28;20502;-75
2021/12/30 12:29:26;;;;;;;0.80;0.67;;;16.60;99.90;;;;;;5051265;28;20899;-75
2021/12/30 12:31:55;;;;;;;0.80;0.60;;;16.50;99.90;;;;;;5050193;28;20511;-75
2021/12/30 12:34:34;;;;;;;0.80;0.70;;;16.20;99.90;;;;;;5053880;28;20487;-75
2021/12/30 12:37:01;;;;;;;0.90;0.70;;;16.10;99.90;;;;;;5054482;28;20846;-75
2021/12/30 12:39:35;;;;;;;1.17;0.70;;;15.90;99.90;;;;;;5054298;28;20466;-74
2021/12/30 12:42:04;;;;;;;0.80;0.70;;;15.80;99.90;;;;;;5054049;28;20462;-75
2021/12/30 12:44:31;;;;;;;3.00;0.80;;;15.80;99.90;;;;;;5053992;28;20479;-75
2021/12/30 12:46:59;;;;;;;1.23;0.83;;;15.70;99.90;;;;;;5054062;28;20459;-74
2021/12/30 12:49:43;;;;;;;0.90;0.70;;;15.50;99.90;;;;;;5054109;28;20459;-75
2021/12/30 12:52:10;;;;;;;1.10;0.70;;;15.30;99.90;;;;;;5053423;28;20463;-75
2021/12/30 12:54:40;;;;;;;0.90;0.73;;;15.20;99.90;;;;;;5053772;28;20491;-75
2021/12/30 12:57:11;;;;;;;0.90;0.70;;;15.20;99.90;;;;;;5054139;28;20455;-75